Wadena, Minnesota
Current Conditions -  °F | °C
As of 4:15 AM on Sunday 25 Jan 2015 (Local Time) from KADC Reporting Station
Scattered Clouds Scattered Clouds  
Wind Chill: 14°   Ceiling: Unl
Heat Index: 23°   Visibility: 10mi
Dew Point: 18°   Wind: 8mph
Humidity: 80%   Direction: 30°NNE
Pressure: 29.87"   Gusts: NA
Location:  46.44°N, 95.14°W
Report Text: KADC 251015Z AUTO 03007KT 10SM SCT024 M05/M08 A2987 RMK AO2
Loading
Personal Weather Stations






























Interactive Weather Map New forecast layout! Learn more

10-Day Weather Forecast

Advertisements
Track Severe Weather on mobile